Time;durP1;ratioP1;P1;durP2;ratioP2;P2;SDS_P1;SDS_P2;PMS_P1;PMS_P2;Temp;Humidity;BMP_temperature;BMP_pressure;BME280_temperature;BME280_humidity;BME280_pressure;Samples;Min_cycle;Max_cycle;Signal;HPM_P1;HPM_P2
2023/06/01 00:00:49;;;;;;;7.07;4.80;;;8.60;1.00;;;;;;8253535;28;20233;-66
2023/06/01 00:04:53;;;;;;;6.60;4.57;;;8.60;1.00;;;;;;8267957;28;20318;-64
2023/06/01 00:08:57;;;;;;;7.13;5.63;;;8.50;1.00;;;;;;8279968;28;20223;-65
2023/06/01 00:12:58;;;;;;;7.73;5.77;;;8.50;99.90;;;;;;8255721;28;20246;-65
2023/06/01 00:16:59;;;;;;;6.60;4.87;;;8.50;1.00;;;;;;8251582;28;20246;-66
2023/06/01 00:21:00;;;;;;;7.00;4.87;;;8.40;99.90;;;;;;8255496;28;20196;-64
2023/06/01 00:25:01;;;;;;;6.93;5.53;;;8.30;99.90;;;;;;8270881;28;20258;-67
2023/06/01 00:29:02;;;;;;;8.90;6.10;;;8.20;99.90;;;;;;8264604;28;20235;-65
2023/06/01 00:33:03;;;;;;;9.07;5.80;;;8.10;1.00;;;;;;8281668;28;20195;-66
2023/06/01 00:37:04;;;;;;;8.53;5.83;;;8.10;1.00;;;;;;8266488;28;20195;-64
2023/06/01 00:41:05;;;;;;;8.47;6.17;;;8.10;99.90;;;;;;8268428;28;20223;-65
2023/06/01 00:45:06;;;;;;;10.20;6.60;;;8.10;99.90;;;;;;8256603;28;20225;-65
2023/06/01 00:49:07;;;;;;;8.90;6.10;;;8.10;51.60;;;;;;8252823;28;20294;-64
2023/06/01 00:53:15;;;;;;;7.53;6.07;;;8.10;99.90;;;;;;8267842;28;20208;-65
2023/06/01 00:57:16;;;;;;;9.10;6.03;;;8.00;99.90;;;;;;8266598;28;20222;-66
2023/06/01 01:01:27;;;;;;;9.50;6.30;;;8.10;1.00;;;;;;8269905;28;20191;-65
2023/06/01 01:05:33;;;;;;;7.43;5.60;;;8.10;99.90;;;;;;8265796;28;20216;-65
2023/06/01 01:09:44;;;;;;;8.97;5.63;;;8.10;99.90;;;;;;8267404;28;20298;-65
2023/06/01 01:14:16;;;;;;;5.43;4.50;;;8.20;29.20;;;;;;8263010;28;20203;-65
2023/06/01 01:18:35;;;;;;;6.13;4.30;;;8.40;99.90;;;;;;8263857;28;20196;-65
2023/06/01 01:23:00;;;;;;;8.77;4.53;;;8.80;1.00;;;;;;8251002;28;20230;-65
2023/06/01 01:27:01;;;;;;;5.60;4.00;;;9.00;99.90;;;;;;8265437;28;20269;-65
2023/06/01 01:31:05;;;;;;;5.90;3.80;;;9.50;1.00;;;;;;8264451;28;20273;-64
2023/06/01 01:35:08;;;;;;;9.03;4.73;;;9.90;9.10;;;;;;8265945;28;20197;-64
2023/06/01 01:39:12;;;;;;;7.00;4.30;;;10.20;99.90;;;;;;8254697;28;20312;-64
2023/06/01 01:43:13;;;;;;;5.30;3.60;;;10.50;10.80;;;;;;8249893;28;20191;-64
2023/06/01 01:47:25;;;;;;;8.17;3.93;;;10.60;1.00;;;;;;8249137;28;20358;-64
2023/06/01 01:51:37;;;;;;;4.57;3.43;;;10.70;99.90;;;;;;8257424;28;20194;-65
2023/06/01 01:55:38;;;;;;;4.43;3.20;;;10.60;99.90;;;;;;8262885;28;20199;-63
2023/06/01 01:59:40;;;;;;;4.73;3.17;;;10.70;99.90;;;;;;8256549;28;20196;-65
2023/06/01 02:03:41;;;;;;;5.03;3.00;;;10.60;99.90;;;;;;8278261;28;20298;-64
2023/06/01 02:07:42;;;;;;;6.10;3.50;;;10.50;99.90;;;;;;8261329;28;20216;-64
2023/06/01 02:11:43;;;;;;;5.83;3.33;;;10.50;99.90;;;;;;8263067;28;20191;-65
2023/06/01 02:15:44;;;;;;;5.07;3.23;;;10.60;99.90;;;;;;8274608;28;20282;-65
2023/06/01 02:19:45;;;;;;;4.77;3.20;;;10.60;99.90;;;;;;8255823;28;20188;-65
2023/06/01 02:23:46;;;;;;;4.80;3.67;;;10.70;99.90;;;;;;8289250;28;20191;-64
2023/06/01 02:27:47;;;;;;;5.13;3.37;;;10.70;99.90;;;;;;8277353;28;20259;-66
2023/06/01 02:31:50;;;;;;;3.87;2.87;;;10.70;99.90;;;;;;8258566;28;20282;-69
2023/06/01 02:35:51;;;;;;;6.40;3.37;;;10.60;99.90;;;;;;8261040;28;20238;-64
2023/06/01 02:39:58;;;;;;;5.43;3.00;;;10.60;99.90;;;;;;8287808;28;20191;-64
2023/06/01 02:43:59;;;;;;;9.20;3.80;;;10.50;99.90;;;;;;8272440;28;20188;-63
2023/06/01 02:48:00;;;;;;;4.70;3.50;;;10.50;99.90;;;;;;8258756;28;20266;-65
2023/06/01 02:52:01;;;;;;;5.40;3.17;;;10.60;99.90;;;;;;8273763;28;20249;-65
2023/06/01 02:56:02;;;;;;;5.23;3.40;;;10.60;99.90;;;;;;8254742;28;20223;-63
2023/06/01 03:00:05;;;;;;;4.53;3.20;;;10.70;99.90;;;;;;8270145;28;20195;-63
2023/06/01 03:04:07;;;;;;;5.20;3.20;;;10.70;99.90;;;;;;8252630;28;20211;-67
2023/06/01 03:08:08;;;;;;;6.17;3.70;;;10.80;99.90;;;;;;8258636;28;20251;-67
2023/06/01 03:12:09;;;;;;;6.10;3.17;;;10.90;99.90;;;;;;8268583;28;20208;-66
2023/06/01 03:16:10;;;;;;;4.87;3.30;;;11.00;99.90;;;;;;8255255;28;20198;-66
2023/06/01 03:20:15;;;;;;;5.03;2.97;;;11.20;99.90;;;;;;8257325;28;20262;-68
2023/06/01 03:24:17;;;;;;;6.57;3.20;;;11.50;99.90;;;;;;8256886;28;20207;-68
2023/06/01 03:28:19;;;;;;;6.80;3.40;;;11.60;99.90;;;;;;8253061;28;20215;-66
2023/06/01 03:32:20;;;;;;;4.67;3.17;;;11.80;99.90;;;;;;8270472;28;20191;-68
2023/06/01 03:36:22;;;;;;;6.20;3.43;;;12.00;99.90;;;;;;8257218;28;20194;-66
2023/06/01 03:40:23;;;;;;;6.80;3.40;;;12.00;97.70;;;;;;8267742;28;20191;-66
2023/06/01 03:44:24;;;;;;;7.43;3.57;;;12.10;92.50;;;;;;8268187;28;20266;-67
2023/06/01 03:48:25;;;;;;;4.33;3.23;;;12.20;84.50;;;;;;8267130;28;20219;-67
2023/06/01 03:52:26;;;;;;;4.13;3.10;;;12.70;61.10;;;;;;8268733;28;20217;-68
2023/06/01 03:56:29;;;;;;;5.80;3.27;;;13.50;13.00;;;;;;8268267;28;20214;-67
2023/06/01 04:00:30;;;;;;;3.57;2.40;;;14.30;1.00;;;;;;8255622;28;20202;-67
2023/06/01 04:04:32;;;;;;;7.53;3.50;;;15.40;1.00;;;;;;8256165;28;20218;-69
2023/06/01 04:08:33;;;;;;;6.43;2.80;;;16.40;1.00;;;;;;8255710;28;20244;-69
2023/06/01 04:12:35;;;;;;;6.97;2.57;;;16.80;1.00;;;;;;8254580;28;20329;-71
2023/06/01 04:16:36;;;;;;;4.37;2.50;;;17.00;1.00;;;;;;8258381;28;20195;-70
2023/06/01 04:20:37;;;;;;;4.17;2.00;;;17.80;1.00;;;;;;8268893;28;20192;-72
2023/06/01 04:24:43;;;;;;;5.23;2.60;;;18.50;1.00;;;;;;8252954;28;20202;-70
2023/06/01 04:28:46;;;;;;;5.20;2.87;;;18.20;1.00;;;;;;8281157;28;20212;-68
2023/06/01 04:32:48;;;;;;;6.30;2.73;;;17.50;1.00;;;;;;8256011;28;20227;-72
2023/06/01 04:36:51;;;;;;;3.70;2.53;;;16.70;1.00;;;;;;8258899;28;20198;-70
2023/06/01 04:40:55;;;;;;;5.37;2.90;;;17.00;1.00;;;;;;8271133;28;20214;-70
2023/06/01 04:44:58;;;;;;;4.73;2.60;;;17.90;1.00;;;;;;8266335;28;20204;-71
2023/06/01 04:49:00;;;;;;;4.80;2.40;;;18.80;1.00;;;;;;8251081;28;20380;-71
2023/06/01 04:53:04;;;;;;;4.07;2.70;;;19.40;1.00;;;;;;8278459;28;20229;-73
2023/06/01 04:57:06;;;;;;;7.33;3.20;;;19.60;1.00;;;;;;8265596;28;20207;-72
2023/06/01 05:01:07;;;;;;;4.90;2.23;;;19.60;1.00;;;;;;8285258;28;20194;-71
2023/06/01 05:05:08;;;;;;;5.40;2.50;;;19.70;1.00;;;;;;8265096;28;20298;-69
2023/06/01 05:09:09;;;;;;;3.77;2.33;;;19.50;1.00;;;;;;8255619;28;20263;-73
2023/06/01 05:13:10;;;;;;;4.50;2.67;;;18.90;1.00;;;;;;8268165;28;20265;-70
2023/06/01 05:17:12;;;;;;;6.97;2.57;;;18.20;1.00;;;;;;8250289;28;20207;-66
2023/06/01 05:21:13;;;;;;;3.63;2.57;;;17.60;1.00;;;;;;8268513;28;20187;-66
2023/06/01 05:25:14;;;;;;;6.57;2.83;;;17.20;1.00;;;;;;8266840;28;20199;-67
2023/06/01 05:29:15;;;;;;;4.73;2.40;;;17.10;1.00;;;;;;8258142;28;20226;-66
2023/06/01 05:33:16;;;;;;;3.27;2.30;;;17.20;1.00;;;;;;8250278;28;20199;-66
2023/06/01 05:37:17;;;;;;;5.17;2.27;;;17.60;1.00;;;;;;8270215;28;20206;-67
2023/06/01 05:41:21;;;;;;;6.37;2.10;;;18.00;1.00;;;;;;8256347;28;20187;-67
2023/06/01 05:45:26;;;;;;;5.03;2.80;;;18.30;1.00;;;;;;8259205;28;20310;-66
2023/06/01 05:49:31;;;;;;;3.27;2.50;;;18.50;1.00;;;;;;8286816;28;20215;-66
2023/06/01 05:53:32;;;;;;;5.33;2.60;;;18.50;1.00;;;;;;8274592;28;20188;-66
2023/06/01 05:57:33;;;;;;;4.53;2.33;;;18.30;1.00;;;;;;8271834;28;20238;-66
2023/06/01 06:01:34;;;;;;;5.70;2.50;;;18.30;1.00;;;;;;8258346;28;20269;-67
2023/06/01 06:05:35;;;;;;;4.80;2.10;;;18.30;1.00;;;;;;8293217;28;20217;-67
2023/06/01 06:09:36;;;;;;;5.73;2.40;;;18.40;1.00;;;;;;8260178;28;20218;-67
2023/06/01 06:13:37;;;;;;;3.83;2.13;;;18.50;1.00;;;;;;8268597;28;20187;-66
2023/06/01 06:17:38;;;;;;;5.00;1.93;;;18.70;1.00;;;;;;8273648;28;20203;-66
2023/06/01 06:21:39;;;;;;;3.67;2.03;;;18.90;1.00;;;;;;8257114;28;20191;-64
2023/06/01 06:25:40;;;;;;;8.20;2.10;;;19.20;1.00;;;;;;8257703;28;20183;-64
2023/06/01 06:29:41;;;;;;;4.73;2.17;;;19.40;1.00;;;;;;8259775;28;20313;-65
2023/06/01 06:33:42;;;;;;;2.73;1.60;;;19.60;1.00;;;;;;8261002;28;20184;-65
2023/06/01 06:37:43;;;;;;;4.87;2.20;;;19.70;1.00;;;;;;8259418;28;20222;-65
2023/06/01 06:41:47;;;;;;;2.23;1.50;;;19.70;1.00;;;;;;8263536;28;20326;-64
2023/06/01 06:45:48;;;;;;;3.10;1.77;;;19.60;1.00;;;;;;8261983;28;20278;-67
2023/06/01 06:49:49;;;;;;;3.27;1.87;;;19.40;1.00;;;;;;8270642;28;20223;-65
2023/06/01 06:53:54;;;;;;;4.33;1.90;;;19.40;1.00;;;;;;8260554;28;20180;-66
2023/06/01 06:57:56;;;;;;;4.67;2.10;;;19.50;1.00;;;;;;8268616;28;20210;-65
2023/06/01 07:01:57;;;;;;;2.30;1.70;;;19.60;1.00;;;;;;8256850;28;20212;-64
2023/06/01 07:06:02;;;;;;;2.73;1.47;;;19.80;1.00;;;;;;8257966;28;20258;-66
2023/06/01 07:10:04;;;;;;;2.77;1.67;;;20.00;1.00;;;;;;8258246;28;20219;-66
2023/06/01 07:14:05;;;;;;;3.20;1.73;;;20.10;1.00;;;;;;8255808;28;20222;-65
2023/06/01 07:18:06;;;;;;;2.67;1.63;;;20.20;1.00;;;;;;8283921;28;20296;-66
2023/06/01 07:22:07;;;;;;;3.53;1.70;;;20.40;1.00;;;;;;8271781;28;20202;-67
2023/06/01 07:26:08;;;;;;;3.00;1.73;;;20.60;1.00;;;;;;8268800;28;20206;-68
2023/06/01 07:30:12;;;;;;;3.23;1.93;;;20.70;1.00;;;;;;8266526;28;20301;-68
2023/06/01 07:34:13;;;;;;;3.43;1.97;;;20.70;1.00;;;;;;8268372;28;20188;-66
2023/06/01 07:38:14;;;;;;;2.20;1.70;;;20.90;1.00;;;;;;8283401;28;20190;-66
2023/06/01 07:42:15;;;;;;;2.07;1.57;;;21.20;1.00;;;;;;8255374;28;20292;-68
2023/06/01 07:46:17;;;;;;;3.73;1.60;;;21.20;1.00;;;;;;8266265;28;20206;-67
2023/06/01 07:50:19;;;;;;;2.10;1.70;;;21.30;1.00;;;;;;8256041;28;20255;-68
2023/06/01 07:54:21;;;;;;;2.47;1.63;;;21.30;1.00;;;;;;8256730;28;20197;-67
2023/06/01 07:58:22;;;;;;;4.20;1.80;;;21.40;1.00;;;;;;8270748;28;20204;-65
2023/06/01 08:02:23;;;;;;;2.50;1.43;;;21.30;1.00;;;;;;8258000;28;20218;-65
2023/06/01 08:06:24;;;;;;;2.30;1.53;;;21.40;1.00;;;;;;8255608;28;20241;-67
2023/06/01 08:10:25;;;;;;;5.63;1.67;;;21.60;1.00;;;;;;8268009;28;20191;-66
2023/06/01 08:14:27;;;;;;;1.70;1.13;;;21.60;1.00;;;;;;8257128;28;20250;-65
2023/06/01 08:18:29;;;;;;;2.57;1.33;;;21.70;1.00;;;;;;8255845;28;20188;-65
2023/06/01 08:22:30;;;;;;;2.33;1.33;;;21.80;1.00;;;;;;8254615;28;20199;-66
2023/06/01 08:26:31;;;;;;;3.60;1.53;;;21.80;1.00;;;;;;8253114;28;20187;-67
2023/06/01 08:30:32;;;;;;;4.63;1.50;;;21.90;1.00;;;;;;8254631;28;20247;-66
2023/06/01 08:34:33;;;;;;;3.30;1.80;;;22.10;1.00;;;;;;8266916;28;20278;-66
2023/06/01 08:38:34;;;;;;;5.03;1.57;;;22.20;1.00;;;;;;8256076;28;20274;-66
2023/06/01 08:42:45;;;;;;;3.47;1.70;;;22.20;1.00;;;;;;8268228;28;20217;-68
2023/06/01 08:46:47;;;;;;;6.83;1.87;;;22.00;1.00;;;;;;8268052;28;20282;-65
2023/06/01 08:50:53;;;;;;;2.57;1.60;;;22.20;1.00;;;;;;8283616;28;20188;-66
2023/06/01 08:54:56;;;;;;;3.57;1.30;;;22.20;1.00;;;;;;8254788;28;20210;-69
2023/06/01 08:58:57;;;;;;;4.10;1.50;;;22.50;1.00;;;;;;8251362;28;20239;-66
2023/06/01 09:03:03;;;;;;;2.53;1.23;;;22.60;1.00;;;;;;8280584;28;20322;-66
2023/06/01 09:07:06;;;;;;;4.50;1.47;;;22.70;1.00;;;;;;8258207;28;20211;-66
2023/06/01 09:11:15;;;;;;;2.10;1.60;;;22.90;1.00;;;;;;8255172;28;20192;-66
2023/06/01 09:15:19;;;;;;;3.17;1.83;;;22.90;1.00;;;;;;8270596;28;20192;-65
2023/06/01 09:19:20;;;;;;;4.10;1.63;;;22.80;1.00;;;;;;8251462;28;20195;-66
2023/06/01 09:23:26;;;;;;;4.37;1.70;;;23.00;1.00;;;;;;8281305;28;20341;-68
2023/06/01 09:27:41;;;;;;;4.57;1.47;;;22.90;1.00;;;;;;8268586;28;20239;-65
2023/06/01 09:31:46;;;;;;;3.67;1.50;;;22.80;1.00;;;;;;8263479;28;20200;-65
2023/06/01 09:35:49;;;;;;;5.57;1.73;;;23.00;1.00;;;;;;8279121;28;20208;-70
2023/06/01 09:39:50;;;;;;;4.07;1.73;;;23.30;1.00;;;;;;8267172;28;20196;-65
2023/06/01 09:43:51;;;;;;;4.57;1.80;;;23.20;1.00;;;;;;8253801;28;20188;-64
2023/06/01 09:47:53;;;;;;;3.37;1.30;;;23.20;1.00;;;;;;8266116;28;20207;-66
2023/06/01 09:52:08;;;;;;;3.57;1.50;;;23.30;1.00;;;;;;8256241;28;20195;-67
2023/06/01 09:56:12;;;;;;;3.90;1.77;;;23.50;1.00;;;;;;8266313;28;20199;-67
2023/06/01 10:00:24;;;;;;;4.50;1.63;;;23.30;1.00;;;;;;8266443;28;20259;-65
2023/06/01 10:04:27;;;;;;;3.63;1.80;;;23.40;1.00;;;;;;8275463;28;20215;-65
2023/06/01 10:08:29;;;;;;;3.00;1.80;;;23.50;1.00;;;;;;8252441;28;20215;-65
2023/06/01 10:12:32;;;;;;;4.87;1.87;;;23.60;1.00;;;;;;8253897;28;20196;-68
2023/06/01 10:16:34;;;;;;;4.30;2.00;;;23.70;1.00;;;;;;8267219;28;20188;-65
2023/06/01 10:20:37;;;;;;;4.30;1.70;;;23.90;1.00;;;;;;8267598;28;20301;-67
2023/06/01 10:24:41;;;;;;;6.23;2.10;;;23.90;1.00;;;;;;8258336;28;20192;-64
2023/06/01 10:28:49;;;;;;;5.57;2.40;;;23.70;1.00;;;;;;8272777;28;20215;-67
2023/06/01 10:32:51;;;;;;;7.30;1.93;;;23.80;1.00;;;;;;8273139;28;20199;-65
2023/06/01 10:37:00;;;;;;;4.37;2.03;;;23.90;1.00;;;;;;8257655;28;20282;-66
2023/06/01 10:41:28;;;;;;;4.93;1.97;;;24.20;1.00;;;;;;8286279;28;20188;-67
2023/06/01 10:45:38;;;;;;;8.47;2.23;;;24.50;1.00;;;;;;8271566;28;20244;-65
2023/06/01 10:49:51;;;;;;;3.87;1.80;;;24.20;1.00;;;;;;8270780;28;20260;-67
2023/06/01 10:53:52;;;;;;;4.43;1.70;;;24.00;1.00;;;;;;8267418;28;20183;-68
2023/06/01 10:58:20;;;;;;;3.60;2.07;;;24.20;1.00;;;;;;8270201;28;20215;-64
2023/06/01 11:02:24;;;;;;;2.40;1.70;;;24.40;1.00;;;;;;8270917;28;20198;-67
2023/06/01 11:06:29;;;;;;;3.13;1.77;;;24.40;1.00;;;;;;8269344;28;20238;-64
2023/06/01 11:10:52;;;;;;;4.57;1.87;;;24.30;1.00;;;;;;8272960;28;20250;-65
2023/06/01 11:15:12;;;;;;;4.53;2.10;;;24.40;1.00;;;;;;8266886;28;20187;-67
2023/06/01 11:19:24;;;;;;;6.00;2.17;;;24.30;1.00;;;;;;8269027;28;20196;-65
2023/06/01 11:23:30;;;;;;;4.80;2.40;;;24.40;1.00;;;;;;8271980;28;20188;-66
2023/06/01 11:27:31;;;;;;;2.30;1.80;;;24.60;1.00;;;;;;8274597;28;20226;-65
2023/06/01 11:31:45;;;;;;;7.33;2.00;;;24.40;1.00;;;;;;8253541;28;20188;-66
2023/06/01 11:35:46;;;;;;;5.50;1.70;;;24.60;1.00;;;;;;8258634;28;20192;-66
2023/06/01 11:39:48;;;;;;;4.07;1.90;;;24.70;1.00;;;;;;8254067;28;20188;-67
2023/06/01 11:43:56;;;;;;;7.73;2.57;;;24.90;1.00;;;;;;8270515;28;20187;-65
2023/06/01 11:48:12;;;;;;;5.87;1.90;;;25.00;1.00;;;;;;8255722;28;20220;-67
2023/06/01 11:52:13;;;;;;;4.77;2.40;;;25.20;1.00;;;;;;8259389;28;20191;-65
2023/06/01 11:56:15;;;;;;;5.60;2.30;;;25.40;1.00;;;;;;8272577;28;20207;-66
2023/06/01 12:00:19;;;;;;;4.97;2.40;;;25.60;1.00;;;;;;8252806;28;20310;-66
2023/06/01 12:04:25;;;;;;;4.15;2.20;;;25.80;1.00;;;;;;8252282;28;20216;-65
2023/06/01 12:08:29;;;;;;;3.08;2.25;;;25.70;1.00;;;;;;8269860;28;20211;-66
2023/06/01 12:12:33;;;;;;;4.93;2.63;;;25.40;1.00;;;;;;8264204;28;20395;-66
2023/06/01 12:17:04;;;;;;;4.50;2.00;;;25.20;1.00;;;;;;8256444;28;20206;-68
2023/06/01 12:21:21;;;;;;;3.07;2.47;;;25.10;1.00;;;;;;8249526;28;20226;-67
2023/06/01 12:25:26;;;;;;;4.73;2.53;;;25.00;1.00;;;;;;8266929;28;20210;-67
2023/06/01 12:29:51;;;;;;;4.67;2.33;;;25.00;1.00;;;;;;8267554;28;20222;-65
2023/06/01 12:33:55;;;;;;;7.83;2.40;;;25.00;1.00;;;;;;8255090;28;20187;-66
2023/06/01 12:38:09;;;;;;;5.17;2.30;;;25.20;1.00;;;;;;8251521;28;20200;-65
2023/06/01 12:42:14;;;;;;;3.37;2.70;;;25.20;1.00;;;;;;8267580;28;20215;-67
2023/06/01 12:46:29;;;;;;;4.53;2.80;;;25.40;1.00;;;;;;8253517;28;20201;-68
2023/06/01 12:50:31;;;;;;;4.17;2.87;;;25.40;1.00;;;;;;8259833;28;20225;-66
2023/06/01 12:54:32;;;;;;;6.90;3.20;;;25.50;1.00;;;;;;8280808;28;20191;-66
2023/06/01 12:58:33;;;;;;;6.63;3.27;;;25.60;1.00;;;;;;8268461;28;20199;-67
2023/06/01 13:02:34;;;;;;;6.13;2.97;;;25.60;1.00;;;;;;8251273;28;20277;-66
2023/06/01 13:06:37;;;;;;;4.85;3.45;;;25.80;1.00;;;;;;8268896;28;20236;-67
2023/06/01 13:10:38;;;;;;;7.60;3.47;;;25.90;1.00;;;;;;8255344;28;20187;-68
2023/06/01 13:14:39;;;;;;;7.43;3.85;;;25.80;1.00;;;;;;8253284;28;20179;-68
2023/06/01 13:18:40;;;;;;;4.90;3.35;;;25.60;1.00;;;;;;8256474;28;20187;-67
2023/06/01 13:22:42;;;;;;;6.20;3.58;;;25.80;1.00;;;;;;8266179;28;20194;-65
2023/06/01 13:26:43;;;;;;;5.65;4.53;;;25.80;1.00;;;;;;8253075;28;20191;-67
2023/06/01 13:30:44;;;;;;;7.90;4.38;;;25.90;1.00;;;;;;8256122;28;20194;-67
2023/06/01 13:34:45;;;;;;;5.65;4.03;;;26.00;1.00;;;;;;8267117;28;20180;-66
2023/06/01 13:38:46;;;;;;;4.78;3.67;;;25.80;1.00;;;;;;8254131;28;20203;-67
2023/06/01 13:42:47;;;;;;;6.43;4.45;;;25.60;1.00;;;;;;8280645;28;20192;-66
2023/06/01 13:46:49;;;;;;;6.77;4.33;;;25.60;1.00;;;;;;8266554;28;20282;-67
2023/06/01 13:50:51;;;;;;;9.50;4.23;;;25.70;1.00;;;;;;8253472;28;20191;-66
2023/06/01 13:54:52;;;;;;;8.75;4.53;;;25.90;1.00;;;;;;8268880;28;20195;-69
2023/06/01 13:58:54;;;;;;;7.25;4.18;;;26.00;1.00;;;;;;8256441;28;20194;-66
2023/06/01 14:02:56;;;;;;;5.65;4.13;;;25.90;1.00;;;;;;8271771;28;20312;-66
2023/06/01 14:06:57;;;;;;;7.57;4.23;;;26.00;1.00;;;;;;8255578;28;20187;-67
2023/06/01 14:10:58;;;;;;;6.45;4.07;;;25.90;1.00;;;;;;8272134;28;20375;-67
2023/06/01 14:14:59;;;;;;;6.80;4.00;;;26.20;1.00;;;;;;8269035;28;20188;-68
2023/06/01 14:19:00;;;;;;;7.70;4.28;;;26.30;1.00;;;;;;8263910;28;20183;-67
2023/06/01 14:23:02;;;;;;;6.35;4.35;;;26.00;1.00;;;;;;8258947;28;20330;-67
2023/06/01 14:27:04;;;;;;;10.38;4.07;;;25.90;1.00;;;;;;8272519;28;20302;-66
2023/06/01 14:31:07;;;;;;;5.90;4.35;;;26.00;1.00;;;;;;8260458;28;20187;-66
2023/06/01 14:35:15;;;;;;;5.97;4.10;;;26.00;1.00;;;;;;8270627;28;20179;-67
2023/06/01 14:39:16;;;;;;;6.45;3.90;;;25.90;1.00;;;;;;8261329;28;20281;-67
2023/06/01 14:43:17;;;;;;;6.37;3.30;;;25.80;1.00;;;;;;8269283;28;20192;-65
2023/06/01 14:47:18;;;;;;;7.60;4.17;;;25.70;1.00;;;;;;8256271;28;20215;-66
2023/06/01 14:51:20;;;;;;;6.60;4.00;;;25.80;1.00;;;;;;8257418;28;20246;-67
2023/06/01 14:55:20;;;;;;;4.88;3.78;;;25.90;1.00;;;;;;8260082;28;20199;-66
2023/06/01 14:59:25;;;;;;;6.43;3.80;;;25.80;1.00;;;;;;8259865;28;20183;-66
2023/06/01 15:03:26;;;;;;;8.10;4.10;;;25.70;1.00;;;;;;8260708;28;20239;-68
2023/06/01 15:07:27;;;;;;;5.30;3.80;;;25.80;1.00;;;;;;8261144;28;20376;-68
2023/06/01 15:11:28;;;;;;;7.15;3.78;;;25.80;1.00;;;;;;8260575;28;20241;-64
2023/06/01 15:15:29;;;;;;;5.50;4.22;;;25.80;1.00;;;;;;8263534;28;20179;-65
2023/06/01 15:19:30;;;;;;;5.97;3.57;;;25.80;1.00;;;;;;8261696;28;20198;-66
2023/06/01 15:23:31;;;;;;;4.80;3.70;;;25.60;1.00;;;;;;8257775;28;20184;-65
2023/06/01 15:27:33;;;;;;;6.43;3.80;;;25.70;1.00;;;;;;8259348;28;20234;-65
2023/06/01 15:31:34;;;;;;;8.97;3.93;;;25.60;1.00;;;;;;8271514;28;20179;-65
2023/06/01 15:35:36;;;;;;;5.97;3.40;;;25.70;1.00;;;;;;8269930;28;20180;-65
2023/06/01 15:39:40;;;;;;;6.87;3.53;;;25.60;1.00;;;;;;8269871;28;20300;-65
2023/06/01 15:43:41;;;;;;;4.13;3.33;;;25.60;1.00;;;;;;8269817;28;20188;-64
2023/06/01 15:47:45;;;;;;;7.68;3.20;;;25.50;1.00;;;;;;8282291;28;20219;-66
2023/06/01 15:51:52;;;;;;;7.83;3.70;;;25.60;1.00;;;;;;8272427;28;20289;-66
2023/06/01 15:55:53;;;;;;;6.17;3.43;;;25.60;1.00;;;;;;8269054;28;20215;-66
2023/06/01 15:59:55;;;;;;;9.23;4.03;;;25.40;1.00;;;;;;8267518;28;20231;-68
2023/06/01 16:03:57;;;;;;;10.13;3.90;;;25.30;1.00;;;;;;8257935;28;20206;-67
2023/06/01 16:07:58;;;;;;;4.50;3.33;;;25.30;1.00;;;;;;8252822;28;20211;-66
2023/06/01 16:11:59;;;;;;;5.27;3.40;;;25.20;1.00;;;;;;8267399;28;20183;-65
2023/06/01 16:16:00;;;;;;;5.87;3.70;;;25.00;1.00;;;;;;8248197;28;20184;-65
2023/06/01 16:20:06;;;;;;;4.17;3.27;;;24.80;1.00;;;;;;8259561;28;20342;-66
2023/06/01 16:24:07;;;;;;;8.90;3.93;;;24.80;1.00;;;;;;8254279;28;20244;-65
2023/06/01 16:28:08;;;;;;;3.87;3.30;;;24.70;1.00;;;;;;8280106;28;20210;-64
2023/06/01 16:32:09;;;;;;;5.43;3.73;;;24.60;1.00;;;;;;8250635;28;20206;-65
2023/06/01 16:36:10;;;;;;;5.80;3.50;;;24.60;1.00;;;;;;8285416;28;20190;-66
2023/06/01 16:40:11;;;;;;;4.87;3.50;;;24.50;1.00;;;;;;8270162;28;20271;-64
2023/06/01 16:44:12;;;;;;;3.97;3.23;;;24.30;1.00;;;;;;8264966;28;20191;-66
2023/06/01 16:48:13;;;;;;;3.50;3.20;;;24.20;1.00;;;;;;8269031;28;20203;-64
2023/06/01 16:52:14;;;;;;;5.13;3.50;;;24.20;1.00;;;;;;8251487;28;20195;-66
2023/06/01 16:56:16;;;;;;;8.50;3.83;;;24.10;1.00;;;;;;8254473;28;20203;-68
2023/06/01 17:00:17;;;;;;;5.80;3.33;;;24.00;1.00;;;;;;8266791;28;20236;-65
2023/06/01 17:04:18;;;;;;;3.83;3.23;;;23.90;1.00;;;;;;8266836;28;20215;-64
2023/06/01 17:08:27;;;;;;;4.93;3.93;;;23.80;1.00;;;;;;8278744;28;20236;-66
2023/06/01 17:12:29;;;;;;;8.47;4.83;;;23.80;1.00;;;;;;8284992;28;20210;-65
2023/06/01 17:16:33;;;;;;;5.67;3.57;;;23.90;1.00;;;;;;8266922;28;20270;-64
2023/06/01 17:20:34;;;;;;;6.60;3.90;;;24.20;1.00;;;;;;8257864;28;20191;-65
2023/06/01 17:24:35;;;;;;;3.93;3.53;;;24.40;1.00;;;;;;8269706;28;20191;-65
2023/06/01 17:28:36;;;;;;;5.13;3.63;;;24.80;1.00;;;;;;8256092;28;20227;-64
2023/06/01 17:32:37;;;;;;;5.33;3.70;;;24.90;1.00;;;;;;8264657;28;20246;-65
2023/06/01 17:36:39;;;;;;;5.03;3.90;;;24.60;1.00;;;;;;8270635;28;20199;-68
2023/06/01 17:40:42;;;;;;;4.80;3.83;;;24.80;1.00;;;;;;8263768;28;20363;-65
2023/06/01 17:44:43;;;;;;;5.27;4.13;;;25.10;1.00;;;;;;8255487;28;20221;-65
2023/06/01 17:48:44;;;;;;;7.53;4.13;;;25.00;1.00;;;;;;8269668;28;20270;-65
2023/06/01 17:52:45;;;;;;;5.77;4.10;;;24.90;1.00;;;;;;8251204;28;20187;-65
2023/06/01 17:56:46;;;;;;;6.93;4.37;;;24.90;1.00;;;;;;8258577;28;20222;-63
2023/06/01 18:00:47;;;;;;;5.47;4.27;;;24.80;1.00;;;;;;8279683;28;20191;-66
2023/06/01 18:04:50;;;;;;;5.17;4.53;;;24.90;1.00;;;;;;8265683;28;20215;-65
2023/06/01 18:08:51;;;;;;;4.83;4.30;;;24.70;1.00;;;;;;8252725;28;20212;-64
2023/06/01 18:12:52;;;;;;;7.13;5.07;;;24.50;1.00;;;;;;8250807;28;20212;-65
2023/06/01 18:16:53;;;;;;;7.30;4.70;;;24.30;1.00;;;;;;8248089;28;20198;-64
2023/06/01 18:20:55;;;;;;;5.20;4.70;;;24.10;1.00;;;;;;8256383;28;20213;-64
2023/06/01 18:24:56;;;;;;;9.67;4.93;;;24.00;1.00;;;;;;8278402;28;20305;-65
2023/06/01 18:28:58;;;;;;;6.63;4.80;;;23.80;1.00;;;;;;8270746;28;20215;-63
2023/06/01 18:32:59;;;;;;;9.77;5.90;;;23.40;1.00;;;;;;8248325;28;20186;-65
2023/06/01 18:37:01;;;;;;;7.70;6.10;;;23.10;1.00;;;;;;8253444;28;20184;-65
2023/06/01 18:41:02;;;;;;;6.53;5.60;;;22.90;1.00;;;;;;8268487;28;20188;-65
2023/06/01 18:45:03;;;;;;;7.33;5.43;;;22.60;1.00;;;;;;8257814;28;20179;-65
2023/06/01 18:49:08;;;;;;;10.30;5.60;;;22.20;1.00;;;;;;8254732;28;20215;-64
2023/06/01 18:53:09;;;;;;;7.53;5.60;;;21.70;1.00;;;;;;8272467;28;20184;-65
2023/06/01 18:57:10;;;;;;;6.10;5.30;;;21.30;1.00;;;;;;8255617;28;20203;-65
2023/06/01 19:01:14;;;;;;;8.83;5.60;;;20.90;1.00;;;;;;8274195;28;20184;-64
2023/06/01 19:05:22;;;;;;;7.13;5.13;;;20.60;1.00;;;;;;8255055;28;20218;-64
2023/06/01 19:09:23;;;;;;;5.47;4.87;;;20.30;1.00;;;;;;8258421;28;20230;-65
2023/06/01 19:13:35;;;;;;;6.43;5.40;;;19.90;1.00;;;;;;8255999;28;20191;-65
2023/06/01 19:17:42;;;;;;;5.00;4.50;;;19.50;1.00;;;;;;8253745;28;20192;-64
2023/06/01 19:21:43;;;;;;;4.97;4.03;;;19.00;1.00;;;;;;8271834;28;20275;-64
2023/06/01 19:25:44;;;;;;;5.43;4.33;;;18.70;1.00;;;;;;8260531;28;20225;-64
2023/06/01 19:29:45;;;;;;;4.83;4.33;;;18.30;1.00;;;;;;8258690;28;20218;-64
2023/06/01 19:33:48;;;;;;;6.27;4.30;;;18.00;1.00;;;;;;8267696;28;20195;-62
2023/06/01 19:37:51;;;;;;;4.80;4.40;;;17.70;1.00;;;;;;8253566;28;20199;-63
2023/06/01 19:41:53;;;;;;;6.47;4.97;;;17.30;1.00;;;;;;8260197;28;20187;-62
2023/06/01 19:45:59;;;;;;;5.50;4.70;;;17.10;1.00;;;;;;8254873;28;20195;-62
2023/06/01 19:50:00;;;;;;;5.33;4.70;;;16.80;1.00;;;;;;8259284;28;20286;-69
2023/06/01 19:54:02;;;;;;;6.70;4.67;;;16.70;1.00;;;;;;8257659;28;20187;-62
2023/06/01 19:58:09;;;;;;;7.80;6.07;;;16.50;1.00;;;;;;8254731;28;20207;-63
2023/06/01 20:02:32;;;;;;;6.33;5.13;;;16.30;1.00;;;;;;8254503;28;20221;-61
2023/06/01 20:06:39;;;;;;;7.53;5.83;;;16.20;1.00;;;;;;8262658;28;20183;-62
2023/06/01 20:10:40;;;;;;;7.30;5.77;;;16.20;1.00;;;;;;8281016;28;20311;-63
2023/06/01 20:14:48;;;;;;;6.97;5.37;;;16.20;1.00;;;;;;8262875;28;20286;-63
2023/06/01 20:18:49;;;;;;;6.13;5.27;;;16.10;1.00;;;;;;8263908;28;20192;-63
2023/06/01 20:22:50;;;;;;;6.03;5.37;;;16.00;1.00;;;;;;8256949;28;20191;-62
2023/06/01 20:26:57;;;;;;;7.10;5.83;;;15.80;1.00;;;;;;8259672;28;20195;-61
2023/06/01 20:31:04;;;;;;;8.43;6.83;;;15.70;1.00;;;;;;8268748;28;20210;-63
2023/06/01 20:35:08;;;;;;;7.70;5.60;;;15.60;1.00;;;;;;8269503;28;20187;-63
2023/06/01 20:39:12;;;;;;;7.03;5.90;;;15.50;1.00;;;;;;8267821;28;20192;-62
2023/06/01 20:43:23;;;;;;;6.23;5.40;;;15.20;1.00;;;;;;8267077;28;20191;-62
2023/06/01 20:47:24;;;;;;;6.73;5.00;;;14.90;1.00;;;;;;8263146;28;20267;-63
2023/06/01 20:51:31;;;;;;;6.37;5.43;;;14.60;1.00;;;;;;8255065;28;20412;-61
2023/06/01 20:55:40;;;;;;;6.87;5.50;;;14.40;1.00;;;;;;8256389;28;20184;-63
2023/06/01 20:59:41;;;;;;;6.37;5.30;;;14.20;1.00;;;;;;8265521;28;20192;-61
2023/06/01 21:03:42;;;;;;;5.87;4.93;;;14.00;1.00;;;;;;8255396;28;20218;-62
2023/06/01 21:07:43;;;;;;;6.00;5.13;;;13.90;1.00;;;;;;8270547;28;20207;-64
2023/06/01 21:11:51;;;;;;;5.97;5.37;;;13.80;1.00;;;;;;8281605;28;20187;-62
2023/06/01 21:15:57;;;;;;;5.77;4.60;;;13.60;1.00;;;;;;8251838;28;20211;-63
2023/06/01 21:19:58;;;;;;;6.40;5.53;;;13.50;1.00;;;;;;8264382;28;20290;-63